createdAt,value
2018-05-29T00:01:08.577Z,65.40
2018-05-29T00:03:42.588Z,65.40
2018-05-29T00:06:16.186Z,65.00
2018-05-29T00:08:50.810Z,64.50
2018-05-29T00:11:24.410Z,64.40
2018-05-29T00:13:58.216Z,65.00
2018-05-29T00:16:32.026Z,66.10
2018-05-29T00:19:05.752Z,65.60
2018-05-29T00:21:40.119Z,67.10
2018-05-29T00:24:14.043Z,67.10
2018-05-29T00:26:47.653Z,67.60
2018-05-29T00:29:21.515Z,67.20
2018-05-29T00:31:55.095Z,66.80
2018-05-29T00:34:28.749Z,67.00
2018-05-29T00:37:02.469Z,67.00
2018-05-29T00:39:36.367Z,66.80
2018-05-29T00:42:09.947Z,67.10
2018-05-29T00:44:44.495Z,66.70
2018-05-29T00:47:18.910Z,66.90
2018-05-29T00:49:52.568Z,66.90
2018-05-29T00:52:26.322Z,66.60
2018-05-29T00:55:12.214Z,67.70
2018-05-29T00:57:46.636Z,67.40
2018-05-29T01:00:20.218Z,67.30
2018-05-29T01:02:54.861Z,67.50
2018-05-29T01:05:28.659Z,67.40
2018-05-29T01:08:02.246Z,67.60
2018-05-29T01:10:36.678Z,69.50
2018-05-29T01:13:10.482Z,69.40
2018-05-29T01:15:44.807Z,68.50
2018-05-29T01:18:18.719Z,68.50
2018-05-29T01:20:52.732Z,68.50
2018-05-29T01:23:26.330Z,69.00
2018-05-29T01:25:59.983Z,69.20
2018-05-29T01:28:33.598Z,69.50
2018-05-29T01:31:07.338Z,68.70
2018-05-29T01:33:41.635Z,68.70
2018-05-29T01:36:15.358Z,68.70
2018-05-29T01:38:48.958Z,68.60
2018-05-29T01:41:22.562Z,68.70
2018-05-29T01:43:56.358Z,69.10
2018-05-29T01:46:29.966Z,69.40
2018-05-29T01:49:03.662Z,69.30
2018-05-29T01:51:38.191Z,69.00
2018-05-29T01:54:11.817Z,69.10
2018-05-29T01:56:46.107Z,69.50
2018-05-29T01:59:20.018Z,69.40
2018-05-29T02:01:54.322Z,69.30
2018-05-29T02:04:28.053Z,69.20
2018-05-29T02:07:01.908Z,69.20
2018-05-29T02:09:35.654Z,69.20
2018-05-29T02:12:09.426Z,69.70
2018-05-29T02:14:43.054Z,69.30
2018-05-29T02:17:16.883Z,69.20
2018-05-29T02:19:50.558Z,69.10
2018-05-29T02:22:24.358Z,69.10
2018-05-29T02:24:57.890Z,69.00
2018-05-29T02:27:31.679Z,69.00
2018-05-29T02:30:05.295Z,69.20
2018-05-29T02:32:38.904Z,69.00
2018-05-29T02:35:12.439Z,69.00
2018-05-29T02:37:46.802Z,69.30
2018-05-29T02:40:20.703Z,69.20
2018-05-29T02:42:54.511Z,68.90
2018-05-29T02:45:28.111Z,68.90
2018-05-29T02:48:02.599Z,69.90
2018-05-29T02:50:36.194Z,69.90
2018-05-29T02:53:09.931Z,69.30
2018-05-29T02:55:44.563Z,69.60
2018-05-29T02:58:18.871Z,69.20
2018-05-29T03:00:52.424Z,69.20
2018-05-29T03:03:26.774Z,69.20
2018-05-29T03:06:01.102Z,69.40
2018-05-29T03:08:35.023Z,69.40
2018-05-29T03:11:08.830Z,69.10
2018-05-29T03:13:42.458Z,69.20
2018-05-29T03:16:16.865Z,68.70
2018-05-29T03:18:50.660Z,68.70
2018-05-29T03:21:24.321Z,68.80
2018-05-29T03:23:58.054Z,68.70
2018-05-29T03:26:31.883Z,69.10
2018-05-29T03:29:05.492Z,69.10
2018-05-29T03:31:39.154Z,69.20
2018-05-29T03:34:12.907Z,68.50
2018-05-29T03:36:46.547Z,68.50
2018-05-29T03:39:20.242Z,68.40
2018-05-29T03:41:54.910Z,68.40
2018-05-29T03:44:28.715Z,69.10
2018-05-29T03:47:02.267Z,68.40
2018-05-29T03:49:36.621Z,69.60
2018-05-29T03:52:11.150Z,69.60
2018-05-29T03:54:44.755Z,69.60
2018-05-29T03:57:18.563Z,69.10
2018-05-29T03:59:52.267Z,69.30
2018-05-29T04:02:25.838Z,69.00
2018-05-29T04:05:00.274Z,69.40
2018-05-29T04:07:33.931Z,69.40
2018-05-29T04:10:07.583Z,69.00
2018-05-29T04:12:41.390Z,69.90
2018-05-29T04:15:15.024Z,70.00
2018-05-29T04:17:49.415Z,70.40
2018-05-29T04:20:23.133Z,70.40
2018-05-29T04:22:56.826Z,70.50
2018-05-29T04:25:30.318Z,70.80
2018-05-29T04:28:04.225Z,70.30
2018-05-29T04:30:37.905Z,70.50
2018-05-29T04:33:11.522Z,69.70
2018-05-29T04:35:45.930Z,68.00
2018-05-29T04:38:19.455Z,67.80
2018-05-29T04:40:53.120Z,67.60
2018-05-29T04:43:27.683Z,66.70
2018-05-29T04:46:01.477Z,66.70
2018-05-29T04:48:35.983Z,65.70
2018-05-29T04:51:09.725Z,65.70
2018-05-29T04:53:43.402Z,66.10
2018-05-29T04:56:17.319Z,66.00
2018-05-29T04:58:50.919Z,65.20
2018-05-29T05:01:26.043Z,65.30
2018-05-29T05:03:59.793Z,65.20
2018-05-29T05:06:33.554Z,65.20
2018-05-29T05:09:07.166Z,65.00
2018-05-29T05:11:40.867Z,65.00
2018-05-29T05:14:14.594Z,64.80
2018-05-29T05:16:48.446Z,64.30
2018-05-29T05:19:21.974Z,64.70
2018-05-29T05:21:55.782Z,64.20
2018-05-29T05:24:29.787Z,64.30
2018-05-29T05:27:03.342Z,64.40
2018-05-29T05:29:36.999Z,64.10
2018-05-29T05:32:10.699Z,64.10
2018-05-29T05:34:44.402Z,63.70
2018-05-29T05:37:18.904Z,63.50
2018-05-29T05:39:52.833Z,63.50
2018-05-29T05:42:26.634Z,63.50
2018-05-29T05:45:00.447Z,63.50
2018-05-29T05:47:34.250Z,63.60
2018-05-29T05:50:08.059Z,63.00
2018-05-29T05:52:41.928Z,63.30
2018-05-29T05:55:15.561Z,63.50
2018-05-29T05:57:49.267Z,63.10
2018-05-29T06:00:23.066Z,63.20
2018-05-29T06:02:56.742Z,62.80
2018-05-29T06:05:30.371Z,63.70
2018-05-29T06:08:04.081Z,63.60
2018-05-29T06:10:38.095Z,63.40
2018-05-29T06:13:11.686Z,62.90
2018-05-29T06:15:45.494Z,62.90
2018-05-29T06:18:19.100Z,63.10
2018-05-29T06:20:53.624Z,63.00
2018-05-29T06:23:27.395Z,62.80
2018-05-29T06:26:01.131Z,63.10
2018-05-29T06:28:35.619Z,62.40
2018-05-29T06:31:10.062Z,62.50
2018-05-29T06:33:43.570Z,62.40
2018-05-29T06:36:17.176Z,62.60
2018-05-29T06:38:51.778Z,62.10
2018-05-29T06:41:25.510Z,62.00
2018-05-29T06:44:00.516Z,62.30
2018-05-29T06:46:34.128Z,62.20
2018-05-29T06:49:08.010Z,62.10
2018-05-29T06:51:41.730Z,61.50
2018-05-29T06:54:16.276Z,61.60
2018-05-29T06:56:50.098Z,61.60
2018-05-29T06:59:23.746Z,61.80
2018-05-29T07:01:57.390Z,61.20
2018-05-29T07:04:30.956Z,60.80
2018-05-29T07:07:04.531Z,61.20
2018-05-29T07:09:38.083Z,61.00
2018-05-29T07:12:11.879Z,60.50
2018-05-29T07:14:45.686Z,61.10
2018-05-29T07:17:19.286Z,60.50
2018-05-29T07:19:53.110Z,60.30
2018-05-29T07:22:26.698Z,60.40
2018-05-29T07:25:00.714Z,60.20
2018-05-29T07:27:34.388Z,60.40
2018-05-29T07:30:08.124Z,59.90
2018-05-29T07:32:41.914Z,59.60
2018-05-29T07:35:15.726Z,59.60
2018-05-29T07:37:49.360Z,59.60
2018-05-29T07:40:23.141Z,59.40
2018-05-29T07:42:56.808Z,59.20
2018-05-29T07:45:30.610Z,59.10
2018-05-29T07:48:04.350Z,59.20
2018-05-29T07:50:38.088Z,58.70
2018-05-29T07:53:11.752Z,59.40
2018-05-29T07:55:45.555Z,57.90
2018-05-29T07:58:19.058Z,57.60
2018-05-29T08:00:52.759Z,57.70
2018-05-29T08:03:26.580Z,57.30
2018-05-29T08:06:00.212Z,57.80
2018-05-29T08:08:33.807Z,57.60
2018-05-29T08:11:07.569Z,57.50
2018-05-29T08:13:41.629Z,57.20
2018-05-29T08:19:19.479Z,57.20
2018-05-29T08:21:53.283Z,57.20
2018-05-29T08:24:26.998Z,56.70
2018-05-29T08:27:01.506Z,56.90
2018-05-29T08:29:35.174Z,56.90
2018-05-29T08:32:08.919Z,56.40
2018-05-29T08:34:42.519Z,56.50
2018-05-29T08:37:16.326Z,55.40
2018-05-29T08:39:50.127Z,55.20
2018-05-29T08:42:24.642Z,55.50
2018-05-29T08:44:58.356Z,55.40
2018-05-29T08:47:32.975Z,54.30
2018-05-29T08:50:06.785Z,54.30
2018-05-29T08:52:40.388Z,54.10
2018-05-29T08:55:14.059Z,53.60
2018-05-29T08:57:47.784Z,53.40
2018-05-29T09:00:21.467Z,53.00
2018-05-29T09:02:55.193Z,52.60
2018-05-29T09:05:28.795Z,51.60
2018-05-29T09:08:03.427Z,51.70
2018-05-29T09:10:37.122Z,51.70
2018-05-29T09:13:10.815Z,51.80
2018-05-29T09:15:44.635Z,51.20
2018-05-29T09:18:18.255Z,50.00
2018-05-29T09:20:51.952Z,50.00
2018-05-29T09:23:25.529Z,50.30
2018-05-29T09:25:59.159Z,50.20
2018-05-29T09:28:33.678Z,48.60
2018-05-29T09:31:07.955Z,49.10
2018-05-29T09:33:41.692Z,49.10
2018-05-29T09:36:15.992Z,47.60
2018-05-29T09:38:51.223Z,46.70
2018-05-29T09:41:25.708Z,47.20
2018-05-29T09:43:59.353Z,47.20
2018-05-29T09:46:33.028Z,47.80
2018-05-29T09:49:06.767Z,45.80
2018-05-29T09:51:40.445Z,45.10
2018-05-29T09:54:14.062Z,45.30
2018-05-29T09:56:47.691Z,46.00
2018-05-29T09:59:21.279Z,44.60
2018-05-29T10:01:55.187Z,44.70
2018-05-29T10:04:28.915Z,44.10
2018-05-29T10:07:02.867Z,43.10
2018-05-29T10:09:36.449Z,43.30
2018-05-29T10:12:10.211Z,42.20
2018-05-29T10:14:44.019Z,42.70
2018-05-29T10:17:17.819Z,42.80
2018-05-29T10:19:51.509Z,42.90
2018-05-29T10:22:25.043Z,42.00
2018-05-29T10:24:58.711Z,41.80
2018-05-29T10:27:32.423Z,41.50
2018-05-29T10:30:06.227Z,40.10
2018-05-29T10:32:40.968Z,39.50
2018-05-29T10:35:14.666Z,39.50
2018-05-29T10:37:48.420Z,40.60
2018-05-29T10:40:22.092Z,41.00
2018-05-29T10:42:55.670Z,39.60
2018-05-29T10:45:29.978Z,40.00
2018-05-29T10:48:03.555Z,40.00
2018-05-29T10:50:37.287Z,38.90
2018-05-29T10:53:10.892Z,39.70
2018-05-29T10:55:44.699Z,39.20
2018-05-29T10:58:18.402Z,39.20
2018-05-29T11:00:52.192Z,38.10
2018-05-29T11:03:25.693Z,39.00
2018-05-29T11:05:59.510Z,38.70
2018-05-29T11:08:33.010Z,39.20
2018-05-29T11:11:06.607Z,38.60
2018-05-29T11:13:40.280Z,38.30
2018-05-29T11:16:13.995Z,38.50
2018-05-29T11:18:47.719Z,37.10
2018-05-29T11:21:22.227Z,37.00
2018-05-29T11:23:56.792Z,36.70
2018-05-29T11:26:30.571Z,36.70
2018-05-29T11:29:04.247Z,36.10
2018-05-29T11:31:37.980Z,35.60
2018-05-29T11:34:11.578Z,35.10
2018-05-29T11:36:45.293Z,35.00
2018-05-29T11:39:18.985Z,34.00
2018-05-29T11:41:52.790Z,34.60
2018-05-29T11:44:26.602Z,33.70
2018-05-29T11:47:00.295Z,33.80
2018-05-29T11:49:34.074Z,33.70
2018-05-29T11:52:07.591Z,33.20
2018-05-29T11:54:41.203Z,33.20
2018-05-29T11:57:14.724Z,33.20
2018-05-29T11:59:48.435Z,33.50
2018-05-29T12:02:22.124Z,33.40
2018-05-29T12:04:55.795Z,33.50
2018-05-29T12:07:29.403Z,33.00
2018-05-29T12:10:03.945Z,33.30
2018-05-29T12:12:37.843Z,33.20
2018-05-29T12:15:11.542Z,33.30
2018-05-29T12:17:45.451Z,32.50
2018-05-29T12:20:19.286Z,33.10
2018-05-29T12:22:53.060Z,33.60
2018-05-29T12:25:26.964Z,32.20
2018-05-29T12:28:00.671Z,33.70
2018-05-29T12:30:34.543Z,33.90
2018-05-29T12:33:08.153Z,33.90
2018-05-29T12:35:41.853Z,33.40
2018-05-29T12:38:15.491Z,33.20
2018-05-29T12:40:49.287Z,33.40
2018-05-29T12:43:23.100Z,33.20
2018-05-29T12:45:57.714Z,33.20
2018-05-29T12:48:31.530Z,33.30
2018-05-29T12:51:05.334Z,33.20
2018-05-29T12:53:39.043Z,32.90
2018-05-29T12:56:12.740Z,32.80
2018-05-29T12:58:46.543Z,33.40
2018-05-29T13:01:20.204Z,33.30
2018-05-29T13:03:53.859Z,32.60
2018-05-29T13:06:27.557Z,33.00
2018-05-29T13:09:01.267Z,33.00
2018-05-29T13:11:36.327Z,31.00
2018-05-29T13:14:10.058Z,31.00
2018-05-29T13:16:43.809Z,32.70
2018-05-29T13:19:17.463Z,32.10
2018-05-29T13:21:51.166Z,31.90
2018-05-29T13:24:24.810Z,31.70
2018-05-29T13:26:59.131Z,31.20
2018-05-29T13:29:32.715Z,31.10
2018-05-29T13:32:06.430Z,31.60
2018-05-29T13:34:39.948Z,31.20
2018-05-29T13:37:13.495Z,31.50
2018-05-29T13:39:47.018Z,30.30
2018-05-29T13:42:20.555Z,30.90
2018-05-29T13:44:54.093Z,30.00
2018-05-29T13:47:27.734Z,30.10
2018-05-29T13:50:01.290Z,30.50
2018-05-29T13:52:34.956Z,30.50
2018-05-29T13:55:08.667Z,30.00
2018-05-29T13:57:42.436Z,30.00
2018-05-29T14:00:16.715Z,30.90
2018-05-29T14:02:50.344Z,30.60
2018-05-29T14:05:24.056Z,30.70
2018-05-29T14:07:57.658Z,30.00
2018-05-29T14:10:31.295Z,30.70
2018-05-29T14:13:05.063Z,29.80
2018-05-29T14:15:38.872Z,29.70
2018-05-29T14:18:12.641Z,29.70
2018-05-29T14:20:46.288Z,30.00
2018-05-29T14:23:19.791Z,30.00
2018-05-29T14:25:53.483Z,30.00
2018-05-29T14:28:27.050Z,29.80
2018-05-29T14:31:00.552Z,29.60
2018-05-29T14:33:34.109Z,29.80
2018-05-29T14:36:07.892Z,29.90
2018-05-29T14:38:41.483Z,29.70
2018-05-29T14:41:15.083Z,30.00
2018-05-29T14:43:49.095Z,29.50
2018-05-29T14:46:22.778Z,29.70
2018-05-29T14:48:56.571Z,30.00
2018-05-29T14:51:30.200Z,29.80
2018-05-29T14:54:04.113Z,29.90
2018-05-29T14:56:37.755Z,29.80
2018-05-29T14:59:11.403Z,29.20
2018-05-29T15:01:45.212Z,29.70
2018-05-29T15:04:18.978Z,29.20
2018-05-29T15:06:52.602Z,29.80
2018-05-29T15:09:26.536Z,29.50
2018-05-29T15:12:00.230Z,29.80
2018-05-29T15:14:34.003Z,29.60
2018-05-29T15:17:07.951Z,29.50
2018-05-29T15:19:41.697Z,29.50
2018-05-29T15:22:15.568Z,30.10
2018-05-29T15:24:49.377Z,30.10
2018-05-29T15:27:23.167Z,30.20
2018-05-29T15:29:56.854Z,31.10
2018-05-29T15:32:30.363Z,30.80
2018-05-29T15:35:04.006Z,31.20
2018-05-29T15:37:37.790Z,31.30
2018-05-29T15:40:11.388Z,32.10
2018-05-29T15:42:45.055Z,31.90
2018-05-29T15:45:18.822Z,32.90
2018-05-29T15:47:53.291Z,33.30
2018-05-29T15:50:26.984Z,33.20
2018-05-29T15:53:00.823Z,33.50
2018-05-29T15:55:34.627Z,33.90
2018-05-29T15:58:08.119Z,34.00
2018-05-29T16:00:41.814Z,34.90
2018-05-29T16:03:15.519Z,34.90
2018-05-29T16:05:49.119Z,35.40
2018-05-29T16:08:22.693Z,35.40
2018-05-29T16:10:56.278Z,35.80
2018-05-29T16:13:29.904Z,36.10
2018-05-29T16:16:03.543Z,36.40
2018-05-29T16:18:37.247Z,36.10
2018-05-29T16:21:11.758Z,36.50
2018-05-29T16:23:45.471Z,36.40
2018-05-29T16:26:19.182Z,37.00
2018-05-29T16:28:52.743Z,37.20
2018-05-29T16:31:26.347Z,37.30
2018-05-29T16:34:00.758Z,37.60
2018-05-29T16:36:34.462Z,37.50
2018-05-29T16:39:09.119Z,37.80
2018-05-29T16:41:43.764Z,37.70
2018-05-29T16:44:17.547Z,37.90
2018-05-29T16:46:51.347Z,37.90
2018-05-29T16:49:24.911Z,38.00
2018-05-29T16:51:58.614Z,38.40
2018-05-29T16:54:32.367Z,38.40
2018-05-29T16:57:05.997Z,38.90
2018-05-29T16:59:40.259Z,39.40
2018-05-29T17:02:13.988Z,39.30
2018-05-29T17:04:47.740Z,39.40
2018-05-29T17:07:21.396Z,39.80
2018-05-29T17:09:55.196Z,39.60
2018-05-29T17:12:28.922Z,39.80
2018-05-29T17:15:02.609Z,39.70
2018-05-29T17:17:36.288Z,40.30
2018-05-29T17:20:09.813Z,40.40
2018-05-29T17:22:43.533Z,40.50
2018-05-29T17:25:17.174Z,40.50
2018-05-29T17:27:51.020Z,40.80
2018-05-29T17:30:25.029Z,40.70
2018-05-29T17:32:58.720Z,40.80
2018-05-29T17:35:32.299Z,41.20
2018-05-29T17:38:06.009Z,41.20
2018-05-29T17:40:39.640Z,41.40
2018-05-29T17:43:13.179Z,41.80
2018-05-29T17:45:46.971Z,42.30
2018-05-29T17:48:20.718Z,43.20
2018-05-29T17:50:54.447Z,43.20
2018-05-29T17:53:28.277Z,42.70
2018-05-29T17:56:01.807Z,42.90
2018-05-29T17:58:35.362Z,43.00
2018-05-29T18:01:09.054Z,42.80
2018-05-29T18:03:42.740Z,43.10
2018-05-29T18:06:16.327Z,43.70
2018-05-29T18:08:50.886Z,44.50
2018-05-29T18:11:25.174Z,44.90
2018-05-29T18:13:58.921Z,44.80
2018-05-29T18:16:32.664Z,45.60
2018-05-29T18:19:06.278Z,46.00
2018-05-29T18:21:39.998Z,46.70
2018-05-29T18:24:13.718Z,47.30
2018-05-29T18:26:47.516Z,47.70
2018-05-29T18:29:21.340Z,47.80
2018-05-29T18:31:55.050Z,48.20
2018-05-29T18:34:28.744Z,48.00
2018-05-29T18:37:02.538Z,47.90
2018-05-29T18:39:36.057Z,48.90
2018-05-29T18:42:09.610Z,49.20
2018-05-29T18:44:43.269Z,49.50
2018-05-29T18:47:17.007Z,49.00
2018-05-29T18:49:50.641Z,49.90
2018-05-29T18:52:25.042Z,56.90
2018-05-29T18:54:59.207Z,56.90
2018-05-29T18:57:33.786Z,59.50
2018-05-29T19:00:07.599Z,59.80
2018-05-29T19:02:41.414Z,60.00
2018-05-29T19:05:15.016Z,60.00
2018-05-29T19:07:48.751Z,66.30
2018-05-29T19:10:22.638Z,64.70
2018-05-29T19:12:57.048Z,62.60
2018-05-29T19:15:30.865Z,62.60
2018-05-29T19:18:04.457Z,63.60
2018-05-29T19:20:38.056Z,64.00
2018-05-29T19:23:11.881Z,64.20
2018-05-29T19:25:45.526Z,61.40
2018-05-29T19:28:19.120Z,61.90
2018-05-29T19:30:52.872Z,60.70
2018-05-29T19:33:26.670Z,60.30
2018-05-29T19:36:00.310Z,59.00
2018-05-29T19:38:34.095Z,61.70
2018-05-29T19:41:07.791Z,62.30
2018-05-29T19:43:41.507Z,65.50
2018-05-29T19:46:15.895Z,68.00
2018-05-29T19:48:49.607Z,68.00
2018-05-29T19:51:23.190Z,67.00
2018-05-29T19:53:57.735Z,68.50
2018-05-29T19:56:32.040Z,67.30
2018-05-29T19:59:05.614Z,67.10
2018-05-29T20:01:39.346Z,67.60
2018-05-29T20:04:12.972Z,67.50
2018-05-29T20:06:46.702Z,67.30
2018-05-29T20:09:20.447Z,69.70
2018-05-29T20:11:54.190Z,69.80
2018-05-29T20:14:28.579Z,69.00
2018-05-29T20:17:02.257Z,69.00
2018-05-29T20:19:36.692Z,67.40
2018-05-29T20:22:10.331Z,67.40
2018-05-29T20:24:44.014Z,68.80
2018-05-29T20:27:17.703Z,68.20
2018-05-29T20:29:51.419Z,67.60
2018-05-29T20:32:25.114Z,69.10
2018-05-29T20:34:58.771Z,70.20
2018-05-29T20:37:32.317Z,70.50
2018-05-29T20:40:06.057Z,70.30
2018-05-29T20:42:39.636Z,68.40
2018-05-29T20:45:13.250Z,67.20
2018-05-29T20:47:47.101Z,67.30
2018-05-29T20:50:20.827Z,66.00
2018-05-29T20:52:54.453Z,66.40
2018-05-29T20:55:28.056Z,66.00
2018-05-29T20:58:01.659Z,66.50
2018-05-29T21:00:35.327Z,67.50
2018-05-29T21:03:09.738Z,68.60
2018-05-29T21:05:43.476Z,67.90
2018-05-29T21:08:17.767Z,69.50
2018-05-29T21:10:51.487Z,69.50
2018-05-29T21:13:25.098Z,69.20
2018-05-29T21:15:58.703Z,69.40
2018-05-29T21:18:33.115Z,70.90
2018-05-29T21:21:06.920Z,70.90
2018-05-29T21:23:41.227Z,70.90
2018-05-29T21:26:15.035Z,70.90
2018-05-29T21:28:48.844Z,71.20
2018-05-29T21:31:22.514Z,66.70
2018-05-29T21:33:57.167Z,70.40
2018-05-29T21:36:31.603Z,73.70
2018-05-29T21:39:05.888Z,75.40
2018-05-29T21:41:39.514Z,75.40
2018-05-29T21:44:13.223Z,75.70
2018-05-29T21:46:47.032Z,76.60
2018-05-29T21:49:20.591Z,75.80
2018-05-29T21:51:54.443Z,75.20
2018-05-29T21:54:28.007Z,75.00
2018-05-29T21:57:01.841Z,76.70
2018-05-29T21:59:36.130Z,78.70
2018-05-29T22:02:09.745Z,78.00
2018-05-29T22:04:43.463Z,78.50
2018-05-29T22:07:17.142Z,78.90
2018-05-29T22:09:50.708Z,78.50
2018-05-29T22:12:24.468Z,78.90
2018-05-29T22:14:58.274Z,79.10
2018-05-29T22:17:31.985Z,79.20
2018-05-29T22:20:06.492Z,79.00
2018-05-29T22:22:40.816Z,79.30
2018-05-29T22:25:14.523Z,79.30
2018-05-29T22:27:48.823Z,78.20
2018-05-29T22:30:22.552Z,78.00
2018-05-29T22:32:56.230Z,77.00
2018-05-29T22:35:29.958Z,77.70
2018-05-29T22:38:04.570Z,78.30
2018-05-29T22:40:38.266Z,78.20
2018-05-29T22:43:11.937Z,79.20
2018-05-29T22:45:45.642Z,80.20
2018-05-29T22:48:19.207Z,79.60
2018-05-29T22:50:53.602Z,80.60
2018-05-29T22:53:27.298Z,80.60
2018-05-29T22:56:01.006Z,80.80
2018-05-29T22:58:35.514Z,79.90
2018-05-29T23:01:09.262Z,79.90
2018-05-29T23:03:43.859Z,80.70
2018-05-29T23:06:18.283Z,80.80
2018-05-29T23:08:52.084Z,80.80
2018-05-29T23:11:25.714Z,81.60
2018-05-29T23:14:00.317Z,81.50
2018-05-29T23:16:34.027Z,81.40
2018-05-29T23:19:09.124Z,81.30
2018-05-29T23:21:42.822Z,81.10
2018-05-29T23:24:16.453Z,82.20
2018-05-29T23:26:50.158Z,81.60
2018-05-29T23:29:23.846Z,80.50
2018-05-29T23:31:57.435Z,81.60
2018-05-29T23:34:31.167Z,82.50
2018-05-29T23:37:04.687Z,82.20
2018-05-29T23:39:38.308Z,82.50
2018-05-29T23:42:12.047Z,83.70
2018-05-29T23:44:46.501Z,84.40
2018-05-29T23:47:20.052Z,84.40
2018-05-29T23:49:53.683Z,85.00
2018-05-29T23:52:27.399Z,86.80
2018-05-29T23:55:01.017Z,85.10
2018-05-29T23:57:34.638Z,84.80
